Flight Track Log - Related Links

Times and Time Zones

All times are in EDT time to prevent confusion due to time zone crossing. See the TCF3494 flight status page for this flight to view local times or setup timezone preferences in your user account.

Time Position Orientation Groundspeed Altitude Reporting Facility
EDT Latitude Longitude Course Direction KTS MPH feet Rate Location/Type
Mon 08:58:13 PM 40.7667 -73.8000 299° West 208 239 3,600  Level New York TRACON
Mon 09:00:00 PM 40.9340 -74.2345 304° West  Level FlightAware Approximate
Mon 09:00:13 PM 40.9000 -73.8333 349° North 289 333 7,100  Level New York TRACON
Mon 09:01:00 PM 40.9818 -74.3303 304° West  Level FlightAware Approximate
Mon 09:01:13 PM 40.9500 -73.9000 315° West 288 331 7,800  Level New York TRACON
Mon 09:02:00 PM 41.0240 -74.4307 299° West  Level FlightAware Approximate
Mon 09:02:13 PM 40.9667 -74.0000 282° West 283 326 11,700  Level New York TRACON
Mon 09:03:00 PM 41.0659 -74.5314 299° West  Level FlightAware Approximate
Mon 09:03:13 PM 41.0000 -74.1000 294° West 294 338 14,500  Level New York TRACON
Mon 09:04:13 PM 41.0333 -74.1833 298° West 325 374 15,100 650 Climbing New York TRACON
Mon 09:05:13 PM 41.1333 -74.2167 346° North 323 372 15,800 545 Climbing New York TRACON
Mon 09:06:03 PM 41.2039 -74.2567 337° Northwest 332 382 16,100 164 Climbing New York Center
Mon 09:07:03 PM 41.2033 -74.3478 270° West 311 358 16,100  Level New York Center
Mon 09:08:04 PM 41.1783 -74.4786 256° West 327 376 16,100 -50 Level New York Center
Mon 09:09:04 PM 41.1583 -74.5850 256° West 332 382 16,000 942 Descending New York Center
Mon 09:10:05 PM 41.1478 -74.7167 264° West 338 389 18,000 2,083 Climbing New York Center
Mon 09:11:05 PM 41.1881 -74.8156 298° West 320 368 20,200 2,644 Climbing New York Center
Mon 09:12:03 PM 41.2383 -74.9317 300° West 340 391 23,200 2,700 Climbing New York Center
Mon 09:13:05 PM 41.2903 -75.0481 301° West 364 419 25,600 2,311 Climbing New York Center
Mon 09:14:05 PM 41.3422 -75.1703 300° West 374 430 27,900 2,085 Climbing New York Center
Mon 09:15:03 PM 41.3958 -75.2953 300° West 379 436 29,700 1,664 Climbing New York Center
Mon 09:16:04 PM 41.4492 -75.4236 299° West 386 444 31,200 1,574 Climbing New York Center
Mon 09:17:05 PM 41.4961 -75.5514 296° West 391 450 32,900 1,488 Climbing New York Center
Mon 09:18:05 PM 41.5286 -75.6728 290° West 385 443 34,200 1,412 Climbing New York Center
Mon 09:19:04 PM 41.5725 -75.8147 292° West 385 443 35,700 900 Climbing New York Center
Mon 09:20:05 PM 41.6086 -75.9478 290° West 385 443 36,000 149 Climbing New York Center
Mon 09:21:05 PM 41.6464 -76.0786 291° West 380 437 36,000  Level New York Center
Mon 09:22:49 PM 41.7144 -76.3294 290° West 378 435 36,000  Level Cleveland Center
Mon 09:23:49 PM 41.7506 -76.4636 290° West 378 435 36,000  Level Cleveland Center
Mon 09:24:49 PM 41.7908 -76.6003 292° West 389 448 36,000  Level Cleveland Center
Mon 09:25:49 PM 41.8267 -76.7317 290° West 389 448 36,000  Level Cleveland Center
Mon 09:26:49 PM 41.8644 -76.8689 290° West 389 448 36,000  Level Cleveland Center
Mon 09:27:49 PM 41.9022 -77.0036 291° West 389 448 36,000  Level Cleveland Center
Mon 09:28:49 PM 41.9378 -77.1411 289° West 389 448 36,000  Level Cleveland Center
Mon 09:29:49 PM 41.9772 -77.2786 291° West 389 448 36,000  Level Cleveland Center
Mon 09:30:49 PM 42.0144 -77.4167 290° West 389 448 36,000  Level Cleveland Center
Mon 09:31:49 PM 42.0514 -77.5544 290° West 389 448 36,000  Level Cleveland Center
Mon 09:32:49 PM 42.0883 -77.6928 290° West 394 453 36,000  Level Cleveland Center
Mon 09:33:49 PM 42.1231 -77.8311 289° West 394 453 36,000  Level Cleveland Center
Mon 09:34:49 PM 42.1594 -77.9669 290° West 394 453 36,000  Level Cleveland Center
Mon 09:35:49 PM 42.1939 -78.1056 289° West 394 453 36,000  Level Cleveland Center
Mon 09:36:49 PM 42.2322 -78.2444 290° West 394 453 36,000  Level Cleveland Center
Mon 09:37:49 PM 42.2661 -78.3833 288° West 399 459 36,000  Level Cleveland Center
Mon 09:38:49 PM 42.2997 -78.5086 290° West 399 459 36,000  Level Cleveland Center
Mon 09:39:49 PM 42.3356 -78.6506 289° West 399 459 36,000  Level Cleveland Center
Mon 09:40:49 PM 42.3714 -78.7928 289° West 399 459 36,000  Level Cleveland Center
Mon 09:41:49 PM 42.4047 -78.9325 288° West 399 459 36,000  Level Cleveland Center
Mon 09:42:49 PM 42.4400 -79.0722 289° West 399 459 36,000  Level Cleveland Center
Mon 09:43:49 PM 42.4772 -79.2150 290° West 399 459 36,000  Level Cleveland Center
Mon 09:44:49 PM 42.4997 -79.3611 282° West 398 458 36,000  Level Cleveland Center
Mon 09:45:49 PM 42.5053 -79.5072 273° West 392 451 36,000  Level Cleveland Center
Mon 09:46:49 PM 42.5086 -79.6536 272° West 387 445 36,000  Level Cleveland Center
Mon 09:47:49 PM 42.5181 -79.8000 275° West 387 445 36,000  Level Cleveland Center
Mon 09:48:49 PM 42.5272 -79.9464 275° West 387 445 36,000  Level Cleveland Center
Mon 09:49:49 PM 42.5300 -80.1069 271° West 387 445 36,000  Level Cleveland Center
Mon 09:50:49 PM 42.5369 -80.2536 274° West 387 445 36,000  Level Cleveland Center
Mon 09:51:49 PM 42.5414 -80.4000 272° West 387 445 36,000  Level Cleveland Center
Mon 09:52:49 PM 42.5456 -80.5467 272° West 387 445 36,000  Level Cleveland Center
Mon 09:53:49 PM 42.5519 -80.6761 274° West 387 445 36,000  Level Cleveland Center
Mon 09:54:49 PM 42.5578 -80.8228 273° West 387 445 36,000  Level Cleveland Center
Mon 09:55:49 PM 42.5636 -80.9722 273° West 387 445 36,000  Level Cleveland Center
Mon 09:56:49 PM 42.5694 -81.1189 273° West 387 445 36,000  Level Cleveland Center
Mon 09:57:49 PM 42.5728 -81.2628 272° West 382 440 36,000  Level Cleveland Center
Mon 09:58:49 PM 42.5781 -81.4064 273° West 389 448 36,000  Level Cleveland Center
Mon 09:59:49 PM 42.6000 -81.5450 282° West 381 438 36,000  Level Cleveland Center
Mon 10:01:00 PM 42.6227 -81.6987 281° West  Level FlightAware Approximate
Mon 10:01:49 PM 42.6514 -81.8450 281° West 388 447 36,000  Level Cleveland Center
Mon 10:02:49 PM 42.6747 -81.9867 283° West 393 452 36,000  Level Cleveland Center
Mon 10:03:49 PM 42.6942 -82.1000 283° West 393 452 36,000  Level Cleveland Center
Mon 10:04:49 PM 42.7250 -82.2706 284° West 393 452 36,000  Level Cleveland Center
Mon 10:05:49 PM 42.7461 -82.3983 283° West 393 452 36,000  Level Cleveland Center
Mon 10:06:49 PM 42.7708 -82.5403 283° West 393 452 36,000  Level Cleveland Center
Mon 10:07:49 PM 42.7850 -82.6850 278° West 393 452 36,000  Level Cleveland Center
Mon 10:08:49 PM 42.7947 -82.8242 275° West 388 447 36,000  Level Cleveland Center
Mon 10:09:49 PM 42.8025 -82.9658 274° West 388 447 36,000  Level Cleveland Center
Mon 10:10:49 PM 42.8117 -83.1133 275° West 388 447 36,000  Level Cleveland Center
Mon 10:11:49 PM 42.8189 -83.2581 274° West 388 447 36,000  Level Cleveland Center
Mon 10:12:49 PM 42.8281 -83.4000 275° West 388 447 36,000  Level Cleveland Center
Mon 10:13:49 PM 42.8347 -83.5478 274° West 388 447 36,000  Level Cleveland Center
Mon 10:14:49 PM 42.8414 -83.6925 274° West 388 447 36,000  Level Cleveland Center
Mon 10:15:49 PM 42.8497 -83.8372 275° West 388 447 36,000  Level Cleveland Center
Mon 10:16:49 PM 42.8558 -83.9878 273° West 388 447 36,000 -50 Level Cleveland Center
Mon 10:17:49 PM 42.8619 -84.1353 273° West 388 447 35,900 -1,466 Descending Cleveland Center
Mon 10:19:45 PM 42.8772 -84.4367 274° West 391 450 31,700 -1,989 Descending Chicago Center
Mon 10:20:47 PM 42.8828 -84.5836 273° West 389 448 30,000 -829 Descending Chicago Center
Mon 10:21:48 PM 42.8686 -84.7308 263° West 393 452 30,000  Level Chicago Center
Mon 10:22:50 PM 42.8539 -84.8758 262° West 390 449 30,000  Level Chicago Center
Mon 10:23:51 PM 42.8386 -85.0214 262° West 388 447 30,000  Level Chicago Center
Mon 10:24:53 PM 42.8222 -85.1686 261° West 393 452 30,000  Level Chicago Center
Mon 10:25:54 PM 42.8067 -85.3161 262° West 393 452 30,000 -829 Level Chicago Center
Mon 10:26:56 PM 42.7908 -85.4628 262° West 393 452 28,300 -1,854 Descending Chicago Center
Mon 10:27:57 PM 42.7675 -85.6033 257° West 381 438 26,200 -2,146 Descending Chicago Center
Mon 10:28:59 PM 42.7386 -85.7667 257° West 371 427 23,900 -2,049 Descending Chicago Center
Mon 10:30:00 PM 42.7147 -85.8972 256° West 357 411 22,000 -1,805 Descending Chicago Center
Mon 10:31:02 PM 42.6917 -86.0228 256° West 345 397 20,200 -976 Descending Chicago Center
Mon 10:32:03 PM 42.6692 -86.1475 256° West 339 390 20,000 -98 Descending Chicago Center
Mon 10:33:04 PM 42.6467 -86.2722 256° West 339 390 20,000  Level Chicago Center
Mon 10:34:06 PM 42.6228 -86.3942 255° West 335 386 20,000  Level Chicago Center
Mon 10:35:07 PM 42.6006 -86.5158 256° West 333 383 20,000  Level Chicago Center
Mon 10:36:08 PM 42.5772 -86.6389 256° West 336 387 20,000 -829 Level Chicago Center
Mon 10:37:10 PM 42.5525 -86.7622 255° West 335 386 18,300 -1,659 Descending Chicago Center
Mon 10:38:11 PM 42.5200 -86.8764 249° West 329 379 16,600 -1,672 Descending Chicago Center
Mon 10:39:12 PM 42.4886 -86.9894 249° West 326 375 14,900 -1,805 Descending Chicago Center
Mon 10:40:14 PM 42.4533 -87.1181 250° West 308 354 12,900 -1,756 Descending Chicago Center
Mon 10:41:15 PM 42.4242 -87.2239 250° West 302 348 11,300 -1,426 Descending Chicago Center
Mon 10:42:16 PM 42.3956 -87.3292 250° West 299 344 10,000 -634 Descending Chicago Center
Mon 10:43:18 PM 42.3681 -87.4272 249° West 289 333 10,000  Level Chicago Center
Mon 10:44:19 PM 42.3394 -87.5297 249° West 291 335 10,000  Level Chicago Center
Mon 10:45:20 PM 42.2789 -87.5986 220° Southwest 291 335 10,000  Level Chicago Center
Mon 10:46:21 PM 42.2031 -87.6794 218° Southwest 291 335 10,000 -98 Level Chicago Center
Mon 10:47:23 PM 42.1400 -87.7436 217° Southwest 287 330 9,800 -722 Descending Chicago Center
Mon 10:48:09 PM 42.1000 -87.8000 226° Southwest 264 304 8,700 -1,528 Descending Chicago TRACON
Mon 10:49:09 PM 42.1000 -87.9000 270° West 269 310 7,100 -850 Descending Chicago TRACON
Mon 10:50:09 PM 42.1000 -87.9833 270° West 230 265 7,000 -476 Descending Chicago TRACON
Mon 10:51:15 PM 42.0833 -88.0667 255° West 217 250 6,100 -1,150 Descending Chicago TRACON
Mon 10:52:09 PM 42.0833 -88.1500 270° West 217 250 4,700 -1,378 Descending Chicago TRACON
Mon 10:52:29 PM 42.0758 -88.1461 159° South 214 246 4,400 -1,037 Descending Chicago Center
Mon 10:53:30 PM 42.0256 -88.1456 180° South 191 220 3,300 -689 Descending Chicago Center
Mon 10:54:31 PM 41.9861 -88.1125 148° Southeast 185 213 3,000 -182 Descending Chicago Center
Mon 10:55:09 PM 41.9833 -88.0667 95° East 174 200 3,000  Level Chicago TRACON

Login

Don't have an account? Register now (free) for customized features, flight alerts, and more!